NKS881 KBOS-CYYZ
Flight info
| Callsign | NKS881 |
|---|---|
| Flight time | 1h 14m |
| Altitude | 38000 |
| Route | HYLND7 HYLND DCT CAM Q822 GONZZ DCT WOZEE LINNG3 |
| Aircraft | A388/J-SADE2E3FGHIJ3J4J5M1RWXY/LB1D1 |
Departure
| Time | 2026-05-08 00:44 |
|---|---|
| Airport | Boston Logan International Airport (KBOS) |
Arrival
| Time | 2026-05-08 01:58 |
|---|---|
| Airport | Toronto Pearson International Airport (CYYZ) |
| Time | Latitude | Longitude | Altitude | Speed | Heading |
|---|---|---|---|---|---|
| 2026-05-08 00:19 | 42.36744 | -71.01367 | 29 ft | 0 kts | 295° |
| 2026-05-08 00:27 | 42.36744 | -71.01365 | 29 ft | 4 kts | 295° |
| 2026-05-08 00:28 | 42.36726 | -71.01343 | 29 ft | 4 kts | 337° |
| 2026-05-08 00:28 | 42.36703 | -71.01351 | 28 ft | 4 kts | 37° |
| 2026-05-08 00:28 | 42.36696 | -71.01374 | 28 ft | 0 kts | 79° |
| 2026-05-08 00:33 | 42.36698 | -71.01363 | 29 ft | 3 kts | 79° |
| 2026-05-08 00:33 | 42.36700 | -71.01323 | 28 ft | 5 kts | 102° |
| 2026-05-08 00:34 | 42.36686 | -71.01265 | 31 ft | 6 kts | 110° |
| 2026-05-08 00:34 | 42.36672 | -71.01214 | 33 ft | 0 kts | 106° |
| 2026-05-08 00:34 | 42.36672 | -71.01212 | 33 ft | 1 kts | 109° |
| 2026-05-08 00:34 | 42.36659 | -71.01199 | 33 ft | 6 kts | 176° |
| 2026-05-08 00:35 | 42.36579 | -71.01214 | 31 ft | 14 kts | 198° |
| 2026-05-08 00:35 | 42.36478 | -71.01261 | 29 ft | 16 kts | 200° |
| 2026-05-08 00:35 | 42.36374 | -71.01310 | 30 ft | 14 kts | 186° |
| 2026-05-08 00:35 | 42.36307 | -71.01244 | 31 ft | 14 kts | 121° |
| 2026-05-08 00:36 | 42.36247 | -71.01104 | 32 ft | 21 kts | 111° |
| 2026-05-08 00:36 | 42.36183 | -71.00908 | 31 ft | 23 kts | 114° |
| 2026-05-08 00:36 | 42.36166 | -71.00856 | 30 ft | 0 kts | 114° |
| 2026-05-08 00:37 | 42.36165 | -71.00853 | 30 ft | 2 kts | 114° |
| 2026-05-08 00:38 | 42.36086 | -71.00575 | 29 ft | 25 kts | 108° |
| 2026-05-08 00:38 | 42.36028 | -71.00339 | 31 ft | 27 kts | 108° |
| 2026-05-08 00:38 | 42.35967 | -71.00117 | 34 ft | 26 kts | 118° |
| 2026-05-08 00:38 | 42.35921 | -71.00030 | 34 ft | 0 kts | 133° |
| 2026-05-08 00:39 | 42.35916 | -71.00023 | 34 ft | 0 kts | 133° |
| 2026-05-08 00:39 | 42.35908 | -71.00011 | 34 ft | 6 kts | 134° |
| 2026-05-08 00:40 | 42.35844 | -70.99923 | 36 ft | 20 kts | 135° |
| 2026-05-08 00:40 | 42.35731 | -70.99773 | 33 ft | 25 kts | 135° |
| 2026-05-08 00:40 | 42.35605 | -70.99605 | 32 ft | 26 kts | 135° |
| 2026-05-08 00:40 | 42.35505 | -70.99465 | 30 ft | 17 kts | 119° |
| 2026-05-08 00:41 | 42.35519 | -70.99309 | 32 ft | 17 kts | 34° |
| 2026-05-08 00:41 | 42.35594 | -70.99331 | 31 ft | 0 kts | 315° |
| 2026-05-08 00:43 | 42.35610 | -70.99353 | 30 ft | 26 kts | 315° |
| 2026-05-08 00:43 | 42.36016 | -70.99858 | 35 ft | 129 kts | 316° |
| 2026-05-08 00:44 | 42.36778 | -71.00894 | 392 ft | 164 kts | 311° |
| 2026-05-08 00:44 | 42.37605 | -71.02012 | 980 ft | 175 kts | 314° |
| 2026-05-08 00:44 | 42.38457 | -71.03282 | 1406 ft | 190 kts | 305° |
| 2026-05-08 00:44 | 42.39169 | -71.04913 | 2009 ft | 211 kts | 299° |
| 2026-05-08 00:45 | 42.39937 | -71.06743 | 2678 ft | 234 kts | 300° |
| 2026-05-08 00:45 | 42.40794 | -71.08673 | 3565 ft | 244 kts | 306° |
| 2026-05-08 00:45 | 42.42021 | -71.10277 | 3942 ft | 249 kts | 326° |
| 2026-05-08 00:45 | 42.43611 | -71.11239 | 4009 ft | 253 kts | 337° |
| 2026-05-08 00:46 | 42.45255 | -71.12072 | 4006 ft | 251 kts | 337° |
| 2026-05-08 00:46 | 42.46885 | -71.12930 | 4002 ft | 252 kts | 336° |
| 2026-05-08 00:46 | 42.48508 | -71.13806 | 4005 ft | 251 kts | 336° |
| 2026-05-08 00:46 | 42.50134 | -71.14694 | 4004 ft | 251 kts | 335° |
| 2026-05-08 00:47 | 42.51765 | -71.15548 | 4001 ft | 251 kts | 339° |
| 2026-05-08 00:47 | 42.53428 | -71.16292 | 4016 ft | 252 kts | 339° |
| 2026-05-08 00:47 | 42.55094 | -71.17044 | 4014 ft | 252 kts | 339° |
| 2026-05-08 00:47 | 42.56765 | -71.17802 | 4028 ft | 255 kts | 339° |
| 2026-05-08 00:48 | 42.58454 | -71.18572 | 4447 ft | 257 kts | 339° |
| 2026-05-08 00:48 | 42.60152 | -71.19345 | 5526 ft | 256 kts | 339° |
| 2026-05-08 00:48 | 42.61845 | -71.20116 | 6677 ft | 259 kts | 339° |
| 2026-05-08 00:48 | 42.63577 | -71.20903 | 7669 ft | 264 kts | 338° |
| 2026-05-08 00:49 | 42.65331 | -71.21701 | 8755 ft | 267 kts | 338° |
| 2026-05-08 00:49 | 42.67085 | -71.22500 | 9812 ft | 271 kts | 337° |
| 2026-05-08 00:49 | 42.68906 | -71.23333 | 10567 ft | 285 kts | 336° |
| 2026-05-08 00:49 | 42.70858 | -71.24235 | 10913 ft | 308 kts | 336° |
| 2026-05-08 00:50 | 42.72969 | -71.25209 | 11310 ft | 328 kts | 336° |
| 2026-05-08 00:50 | 42.75136 | -71.26252 | 12046 ft | 331 kts | 330° |
| 2026-05-08 00:50 | 42.76990 | -71.28024 | 12877 ft | 324 kts | 309° |
| 2026-05-08 00:50 | 42.78243 | -71.30533 | 13653 ft | 320 kts | 290° |
| 2026-05-08 00:51 | 42.78808 | -71.33412 | 13928 ft | 315 kts | 276° |
| 2026-05-08 00:51 | 42.79113 | -71.36381 | 14009 ft | 317 kts | 275° |
| 2026-05-08 00:51 | 42.79425 | -71.39354 | 14010 ft | 316 kts | 276° |
| 2026-05-08 00:51 | 42.79744 | -71.42312 | 14010 ft | 315 kts | 276° |
| 2026-05-08 00:52 | 42.80068 | -71.45260 | 14013 ft | 315 kts | 276° |
| 2026-05-08 00:52 | 42.80395 | -71.48221 | 14075 ft | 317 kts | 276° |
| 2026-05-08 00:52 | 42.80725 | -71.51197 | 14549 ft | 319 kts | 275° |
| 2026-05-08 00:52 | 42.81055 | -71.54167 | 15471 ft | 317 kts | 274° |
| 2026-05-08 00:53 | 42.81384 | -71.57142 | 16327 ft | 318 kts | 274° |
| 2026-05-08 00:53 | 42.81707 | -71.60099 | 17090 ft | 321 kts | 273° |
| 2026-05-08 00:53 | 42.82038 | -71.63118 | 17887 ft | 323 kts | 272° |
| 2026-05-08 00:53 | 42.82369 | -71.66155 | 18577 ft | 325 kts | 272° |
| 2026-05-08 00:54 | 42.82702 | -71.69220 | 19205 ft | 328 kts | 272° |
| 2026-05-08 00:54 | 42.83036 | -71.72304 | 19825 ft | 331 kts | 272° |
| 2026-05-08 00:54 | 42.83372 | -71.75409 | 20463 ft | 333 kts | 272° |
| 2026-05-08 00:54 | 42.83711 | -71.78546 | 21079 ft | 336 kts | 272° |
| 2026-05-08 00:55 | 42.84051 | -71.81707 | 21687 ft | 338 kts | 272° |
| 2026-05-08 00:55 | 42.84392 | -71.84890 | 22306 ft | 341 kts | 271° |
| 2026-05-08 00:55 | 42.84736 | -71.88096 | 22896 ft | 343 kts | 271° |
| 2026-05-08 00:55 | 42.85081 | -71.91333 | 23509 ft | 347 kts | 271° |
| 2026-05-08 00:56 | 42.85428 | -71.94576 | 24118 ft | 346 kts | 271° |
| 2026-05-08 00:56 | 42.85775 | -71.97835 | 24624 ft | 348 kts | 271° |
| 2026-05-08 00:56 | 42.86123 | -72.01117 | 25154 ft | 350 kts | 271° |
| 2026-05-08 00:56 | 42.86467 | -72.04375 | 25678 ft | 353 kts | 271° |
| 2026-05-08 00:57 | 42.86822 | -72.07743 | 26267 ft | 355 kts | 271° |
| 2026-05-08 00:57 | 42.87174 | -72.11100 | 26800 ft | 358 kts | 271° |
| 2026-05-08 00:57 | 42.87527 | -72.14461 | 27501 ft | 359 kts | 271° |
| 2026-05-08 00:57 | 42.87877 | -72.17805 | 28091 ft | 363 kts | 271° |
| 2026-05-08 00:58 | 42.88233 | -72.21224 | 28742 ft | 366 kts | 271° |
| 2026-05-08 00:58 | 42.88590 | -72.24671 | 29377 ft | 369 kts | 272° |
| 2026-05-08 00:58 | 42.88951 | -72.28146 | 30123 ft | 369 kts | 271° |
| 2026-05-08 00:58 | 42.89310 | -72.31625 | 30626 ft | 373 kts | 271° |
| 2026-05-08 00:59 | 42.89672 | -72.35149 | 31099 ft | 378 kts | 272° |
| 2026-05-08 00:59 | 42.90037 | -72.38716 | 31595 ft | 382 kts | 272° |
| 2026-05-08 00:59 | 42.90406 | -72.42328 | 32077 ft | 386 kts | 272° |
| 2026-05-08 00:59 | 42.90777 | -72.45966 | 32557 ft | 390 kts | 272° |
| 2026-05-08 01:00 | 42.91152 | -72.49649 | 33048 ft | 394 kts | 272° |
| 2026-05-08 01:00 | 42.91530 | -72.53369 | 33539 ft | 398 kts | 272° |
| 2026-05-08 01:00 | 42.91909 | -72.57122 | 33975 ft | 402 kts | 272° |
| 2026-05-08 01:00 | 42.92290 | -72.60915 | 34376 ft | 406 kts | 272° |
| 2026-05-08 01:01 | 42.92671 | -72.64717 | 34773 ft | 410 kts | 272° |
| 2026-05-08 01:01 | 42.93057 | -72.68576 | 35234 ft | 412 kts | 272° |
| 2026-05-08 01:01 | 42.93444 | -72.72454 | 35740 ft | 412 kts | 272° |
| 2026-05-08 01:01 | 42.93832 | -72.76346 | 36218 ft | 414 kts | 272° |
| 2026-05-08 01:02 | 42.94218 | -72.80243 | 36676 ft | 415 kts | 272° |
| 2026-05-08 01:02 | 42.94603 | -72.84155 | 37197 ft | 416 kts | 272° |
| 2026-05-08 01:02 | 42.94988 | -72.88079 | 37673 ft | 418 kts | 272° |
| 2026-05-08 01:02 | 42.95375 | -72.92042 | 37856 ft | 420 kts | 272° |
| 2026-05-08 01:03 | 42.95760 | -72.95978 | 37898 ft | 418 kts | 272° |
| 2026-05-08 01:03 | 42.96529 | -73.03911 | 37866 ft | 423 kts | 272° |
| 2026-05-08 01:04 | 42.97296 | -73.11878 | 37861 ft | 423 kts | 272° |
| 2026-05-08 01:04 | 42.98053 | -73.19796 | 37867 ft | 423 kts | 272° |
| 2026-05-08 01:05 | 42.98807 | -73.27748 | 37882 ft | 421 kts | 272° |
| 2026-05-08 01:05 | 42.99457 | -73.35744 | 37872 ft | 419 kts | 269° |
| 2026-05-08 01:06 | 42.99649 | -73.43616 | 37868 ft | 417 kts | 268° |
| 2026-05-08 01:06 | 42.99852 | -73.51535 | 37864 ft | 417 kts | 268° |
| 2026-05-08 01:07 | 43.00046 | -73.59448 | 37866 ft | 416 kts | 268° |
| 2026-05-08 01:07 | 43.00230 | -73.67356 | 37895 ft | 416 kts | 268° |
| 2026-05-08 01:08 | 43.00407 | -73.75232 | 37868 ft | 417 kts | 268° |
| 2026-05-08 01:08 | 43.00579 | -73.83136 | 37868 ft | 416 kts | 268° |
| 2026-05-08 01:09 | 43.00745 | -73.91047 | 37866 ft | 416 kts | 268° |
| 2026-05-08 01:09 | 43.00906 | -73.98942 | 37872 ft | 416 kts | 268° |
| 2026-05-08 01:10 | 43.01036 | -74.05518 | 37852 ft | 417 kts | 268° |
| 2026-05-08 01:10 | 43.01187 | -74.13447 | 37858 ft | 417 kts | 268° |
| 2026-05-08 01:11 | 43.01333 | -74.21382 | 37859 ft | 418 kts | 268° |
| 2026-05-08 01:11 | 43.01520 | -74.29338 | 37873 ft | 419 kts | 269° |
| 2026-05-08 01:12 | 43.01916 | -74.37305 | 37887 ft | 421 kts | 270° |
| 2026-05-08 01:12 | 43.02302 | -74.45267 | 37857 ft | 423 kts | 270° |
| 2026-05-08 01:13 | 43.02662 | -74.53310 | 37870 ft | 424 kts | 270° |
| 2026-05-08 01:13 | 43.03011 | -74.61359 | 37886 ft | 425 kts | 270° |
| 2026-05-08 01:14 | 43.03356 | -74.69438 | 37900 ft | 426 kts | 270° |
| 2026-05-08 01:14 | 43.03696 | -74.77546 | 37902 ft | 427 kts | 269° |
| 2026-05-08 01:15 | 43.04031 | -74.85663 | 37915 ft | 428 kts | 269° |
| 2026-05-08 01:15 | 43.04360 | -74.93788 | 37912 ft | 428 kts | 269° |
| 2026-05-08 01:16 | 43.04685 | -75.01925 | 37924 ft | 428 kts | 269° |
| 2026-05-08 01:16 | 43.05002 | -75.10024 | 37863 ft | 430 kts | 270° |
| 2026-05-08 01:17 | 43.05315 | -75.18168 | 37931 ft | 428 kts | 269° |
| 2026-05-08 01:17 | 43.05622 | -75.26320 | 37933 ft | 428 kts | 269° |
| 2026-05-08 01:18 | 43.05902 | -75.34444 | 37938 ft | 428 kts | 269° |
| 2026-05-08 01:18 | 43.06119 | -75.42522 | 37934 ft | 427 kts | 269° |
| 2026-05-08 01:19 | 43.06337 | -75.50661 | 37931 ft | 428 kts | 269° |
| 2026-05-08 01:19 | 43.06556 | -75.58854 | 37927 ft | 428 kts | 269° |
| 2026-05-08 01:20 | 43.06769 | -75.66943 | 37926 ft | 428 kts | 269° |
| 2026-05-08 01:20 | 43.06976 | -75.75074 | 37920 ft | 428 kts | 269° |
| 2026-05-08 01:21 | 43.07177 | -75.83226 | 37899 ft | 429 kts | 269° |
| 2026-05-08 01:21 | 43.07374 | -75.91385 | 37902 ft | 430 kts | 269° |
| 2026-05-08 01:22 | 43.07566 | -75.99570 | 37913 ft | 430 kts | 269° |
| 2026-05-08 01:22 | 43.07751 | -76.07756 | 37916 ft | 430 kts | 269° |
| 2026-05-08 01:23 | 43.07931 | -76.15944 | 37927 ft | 431 kts | 269° |
| 2026-05-08 01:23 | 43.08105 | -76.24176 | 37903 ft | 433 kts | 269° |
| 2026-05-08 01:24 | 43.08273 | -76.32362 | 37907 ft | 434 kts | 269° |
| 2026-05-08 01:24 | 43.08436 | -76.40619 | 37914 ft | 434 kts | 269° |
| 2026-05-08 01:25 | 43.08594 | -76.48889 | 37916 ft | 435 kts | 269° |
| 2026-05-08 01:25 | 43.08745 | -76.57180 | 37904 ft | 437 kts | 269° |
| 2026-05-08 01:26 | 43.08891 | -76.65503 | 37916 ft | 438 kts | 269° |
| 2026-05-08 01:26 | 43.08607 | -76.73800 | 37918 ft | 437 kts | 263° |
| 2026-05-08 01:27 | 43.08031 | -76.82080 | 37924 ft | 438 kts | 263° |
| 2026-05-08 01:27 | 43.07472 | -76.90371 | 37890 ft | 439 kts | 264° |
| 2026-05-08 01:28 | 43.06903 | -76.98666 | 37942 ft | 438 kts | 263° |
| 2026-05-08 01:28 | 43.06327 | -77.06936 | 37945 ft | 439 kts | 263° |
| 2026-05-08 01:29 | 43.05738 | -77.15291 | 37949 ft | 439 kts | 263° |
| 2026-05-08 01:29 | 43.05149 | -77.23551 | 37966 ft | 439 kts | 264° |
| 2026-05-08 01:30 | 43.04549 | -77.31878 | 37948 ft | 440 kts | 264° |
| 2026-05-08 01:30 | 43.03944 | -77.40203 | 37949 ft | 440 kts | 264° |
| 2026-05-08 01:31 | 43.03333 | -77.48523 | 37936 ft | 440 kts | 264° |
| 2026-05-08 01:31 | 43.02717 | -77.56835 | 37935 ft | 440 kts | 264° |
| 2026-05-08 01:32 | 43.02096 | -77.65107 | 37934 ft | 440 kts | 264° |
| 2026-05-08 01:32 | 43.01467 | -77.73429 | 37935 ft | 440 kts | 264° |
| 2026-05-08 01:33 | 43.00832 | -77.81742 | 37919 ft | 437 kts | 264° |
| 2026-05-08 01:33 | 43.00518 | -77.85829 | 37662 ft | 429 kts | 264° |
| 2026-05-08 01:33 | 43.00206 | -77.89862 | 37062 ft | 425 kts | 264° |
| 2026-05-08 01:33 | 42.99894 | -77.93878 | 36354 ft | 423 kts | 264° |
| 2026-05-08 01:34 | 42.99582 | -77.97873 | 35594 ft | 422 kts | 264° |
| 2026-05-08 01:34 | 42.99272 | -78.01828 | 34949 ft | 418 kts | 264° |
| 2026-05-08 01:34 | 42.98962 | -78.05767 | 34202 ft | 416 kts | 264° |
| 2026-05-08 01:34 | 42.98653 | -78.09674 | 33488 ft | 411 kts | 264° |
| 2026-05-08 01:35 | 42.98346 | -78.13536 | 32809 ft | 406 kts | 264° |
| 2026-05-08 01:35 | 42.98043 | -78.17339 | 32149 ft | 400 kts | 264° |
| 2026-05-08 01:35 | 42.97742 | -78.21090 | 31515 ft | 394 kts | 264° |
| 2026-05-08 01:35 | 42.97449 | -78.24736 | 30886 ft | 389 kts | 264° |
| 2026-05-08 01:36 | 42.97154 | -78.28388 | 30286 ft | 384 kts | 264° |
| 2026-05-08 01:36 | 42.96858 | -78.32036 | 29574 ft | 379 kts | 264° |
| 2026-05-08 01:36 | 42.96567 | -78.35609 | 28736 ft | 377 kts | 264° |
| 2026-05-08 01:36 | 42.96281 | -78.39105 | 27936 ft | 374 kts | 264° |
| 2026-05-08 01:37 | 42.95992 | -78.42625 | 27150 ft | 372 kts | 264° |
| 2026-05-08 01:37 | 42.95703 | -78.46122 | 26379 ft | 370 kts | 264° |
| 2026-05-08 01:37 | 42.95416 | -78.49599 | 25625 ft | 368 kts | 264° |
| 2026-05-08 01:37 | 42.95128 | -78.53069 | 24889 ft | 367 kts | 264° |
| 2026-05-08 01:38 | 42.94840 | -78.56524 | 24162 ft | 365 kts | 264° |
| 2026-05-08 01:38 | 42.94553 | -78.59961 | 23439 ft | 364 kts | 264° |
| 2026-05-08 01:38 | 42.94266 | -78.63387 | 22682 ft | 361 kts | 264° |
| 2026-05-08 01:38 | 42.93981 | -78.66775 | 21973 ft | 357 kts | 264° |
| 2026-05-08 01:39 | 42.93733 | -78.70132 | 21171 ft | 354 kts | 270° |
| 2026-05-08 01:39 | 42.94037 | -78.73399 | 20486 ft | 352 kts | 285° |
| 2026-05-08 01:39 | 42.95009 | -78.76441 | 19797 ft | 351 kts | 300° |
| 2026-05-08 01:39 | 42.96495 | -78.79060 | 19121 ft | 350 kts | 307° |
| 2026-05-08 01:40 | 42.98052 | -78.81606 | 18446 ft | 348 kts | 307° |
| 2026-05-08 01:40 | 42.99569 | -78.84111 | 17732 ft | 345 kts | 307° |
| 2026-05-08 01:40 | 43.01091 | -78.86634 | 17042 ft | 342 kts | 307° |
| 2026-05-08 01:40 | 43.02597 | -78.89137 | 16355 ft | 339 kts | 307° |
| 2026-05-08 01:41 | 43.04088 | -78.91617 | 15656 ft | 336 kts | 307° |
| 2026-05-08 01:41 | 43.05564 | -78.94074 | 14992 ft | 334 kts | 307° |
| 2026-05-08 01:41 | 43.07034 | -78.96522 | 14336 ft | 331 kts | 307° |
| 2026-05-08 01:41 | 43.08493 | -78.98954 | 13666 ft | 329 kts | 306° |
| 2026-05-08 01:42 | 43.09942 | -79.01370 | 12989 ft | 326 kts | 306° |
| 2026-05-08 01:42 | 43.11373 | -79.03757 | 12290 ft | 324 kts | 306° |
| 2026-05-08 01:42 | 43.12792 | -79.06130 | 11671 ft | 320 kts | 306° |
| 2026-05-08 01:42 | 43.14187 | -79.08462 | 11177 ft | 314 kts | 306° |
| 2026-05-08 01:43 | 43.15568 | -79.10771 | 10985 ft | 314 kts | 306° |
| 2026-05-08 01:43 | 43.16956 | -79.13094 | 10951 ft | 314 kts | 306° |
| 2026-05-08 01:43 | 43.18340 | -79.15413 | 10953 ft | 315 kts | 306° |
| 2026-05-08 01:43 | 43.19727 | -79.17737 | 10952 ft | 315 kts | 306° |
| 2026-05-08 01:44 | 43.21111 | -79.20058 | 10952 ft | 315 kts | 306° |
| 2026-05-08 01:44 | 43.22499 | -79.22388 | 10952 ft | 315 kts | 306° |
| 2026-05-08 01:44 | 43.23866 | -79.24682 | 10953 ft | 315 kts | 306° |
| 2026-05-08 01:44 | 43.25251 | -79.27011 | 10953 ft | 315 kts | 306° |
| 2026-05-08 01:45 | 43.26632 | -79.29334 | 10953 ft | 315 kts | 306° |
| 2026-05-08 01:45 | 43.28018 | -79.31667 | 10951 ft | 315 kts | 306° |
| 2026-05-08 01:45 | 43.29444 | -79.33950 | 10950 ft | 317 kts | 311° |
| 2026-05-08 01:45 | 43.31151 | -79.35876 | 10950 ft | 321 kts | 322° |
| 2026-05-08 01:46 | 43.33122 | -79.37336 | 10951 ft | 323 kts | 332° |
| 2026-05-08 01:46 | 43.35181 | -79.38615 | 10949 ft | 324 kts | 331° |
| 2026-05-08 01:46 | 43.37226 | -79.39918 | 10837 ft | 321 kts | 331° |
| 2026-05-08 01:46 | 43.39239 | -79.41213 | 10389 ft | 320 kts | 331° |
| 2026-05-08 01:47 | 43.41207 | -79.42479 | 10216 ft | 303 kts | 331° |
| 2026-05-08 01:47 | 43.43066 | -79.43672 | 10079 ft | 287 kts | 330° |
| 2026-05-08 01:47 | 43.44832 | -79.44806 | 9901 ft | 274 kts | 330° |
| 2026-05-08 01:48 | 43.48243 | -79.47012 | 9003 ft | 269 kts | 330° |
| 2026-05-08 01:48 | 43.49931 | -79.48106 | 8530 ft | 267 kts | 330° |
| 2026-05-08 01:48 | 43.51614 | -79.49195 | 8134 ft | 266 kts | 331° |
| 2026-05-08 01:48 | 43.53284 | -79.50274 | 8024 ft | 264 kts | 331° |
| 2026-05-08 01:49 | 43.54952 | -79.51352 | 8031 ft | 265 kts | 331° |
| 2026-05-08 01:49 | 43.56629 | -79.52431 | 7801 ft | 266 kts | 331° |
| 2026-05-08 01:49 | 43.58346 | -79.53273 | 7517 ft | 269 kts | 347° |
| 2026-05-08 01:49 | 43.60229 | -79.53062 | 7053 ft | 277 kts | 14° |
| 2026-05-08 01:50 | 43.61889 | -79.51690 | 6626 ft | 282 kts | 39° |
| 2026-05-08 01:50 | 43.63238 | -79.49708 | 6203 ft | 282 kts | 46° |
| 2026-05-08 01:50 | 43.64500 | -79.47655 | 5803 ft | 279 kts | 47° |
| 2026-05-08 01:50 | 43.65766 | -79.45635 | 5410 ft | 277 kts | 46° |
| 2026-05-08 01:51 | 43.67046 | -79.43672 | 5028 ft | 273 kts | 45° |
| 2026-05-08 01:51 | 43.68333 | -79.41754 | 4625 ft | 270 kts | 45° |
| 2026-05-08 01:51 | 43.69617 | -79.39869 | 4218 ft | 268 kts | 45° |
| 2026-05-08 01:51 | 43.70898 | -79.37997 | 4033 ft | 267 kts | 45° |
| 2026-05-08 01:52 | 43.72173 | -79.36134 | 4022 ft | 267 kts | 45° |
| 2026-05-08 01:52 | 43.73487 | -79.34341 | 3937 ft | 264 kts | 34° |
| 2026-05-08 01:52 | 43.75129 | -79.33375 | 3798 ft | 259 kts | 7° |
| 2026-05-08 01:52 | 43.76888 | -79.33537 | 3377 ft | 255 kts | 340° |
| 2026-05-08 01:53 | 43.78377 | -79.34825 | 3075 ft | 252 kts | 319° |
| 2026-05-08 01:53 | 43.79624 | -79.36423 | 3002 ft | 236 kts | 307° |
| 2026-05-08 01:53 | 43.80228 | -79.38428 | 3011 ft | 221 kts | 275° |
| 2026-05-08 01:53 | 43.80039 | -79.40456 | 3015 ft | 209 kts | 253° |
| 2026-05-08 01:54 | 43.79406 | -79.42229 | 3012 ft | 205 kts | 236° |
| 2026-05-08 01:54 | 43.78505 | -79.43741 | 3011 ft | 203 kts | 229° |
| 2026-05-08 01:54 | 43.77531 | -79.45135 | 3015 ft | 201 kts | 227° |
| 2026-05-08 01:54 | 43.76579 | -79.46537 | 3007 ft | 195 kts | 228° |
| 2026-05-08 01:55 | 43.75672 | -79.47851 | 2988 ft | 186 kts | 228° |
| 2026-05-08 01:55 | 43.74792 | -79.49142 | 2766 ft | 184 kts | 228° |
| 2026-05-08 01:55 | 43.74208 | -79.49991 | 2570 ft | 184 kts | 227° |
| 2026-05-08 01:55 | 43.73042 | -79.51694 | 2215 ft | 181 kts | 228° |
| 2026-05-08 01:56 | 43.72466 | -79.52529 | 2050 ft | 181 kts | 228° |
| 2026-05-08 01:56 | 43.71595 | -79.53801 | 1791 ft | 182 kts | 228° |
| 2026-05-08 01:56 | 43.70728 | -79.55061 | 1527 ft | 177 kts | 228° |
| 2026-05-08 01:56 | 43.69909 | -79.56255 | 1284 ft | 165 kts | 227° |
| 2026-05-08 01:57 | 43.69134 | -79.57383 | 1050 ft | 160 kts | 228° |
| 2026-05-08 01:57 | 43.68365 | -79.58503 | 826 ft | 161 kts | 227° |
| 2026-05-08 01:57 | 43.67604 | -79.59607 | 644 ft | 154 kts | 227° |
| 2026-05-08 01:57 | 43.66932 | -79.60595 | 576 ft | 122 kts | 227° |
| 2026-05-08 01:58 | 43.66466 | -79.61281 | 582 ft | 56 kts | 242° |
| 2026-05-08 01:58 | 43.66394 | -79.61527 | 575 ft | 0 kts | 251° |
| 2026-05-08 01:58 | 43.66380 | -79.61588 | 577 ft | 13 kts | 253° |
| 2026-05-08 01:58 | 43.66401 | -79.61722 | 572 ft | 17 kts | 314° |
| 2026-05-08 01:59 | 43.66489 | -79.61841 | 571 ft | 19 kts | 316° |
| 2026-05-08 01:59 | 43.66587 | -79.61970 | 573 ft | 20 kts | 317° |
| 2026-05-08 01:59 | 43.66676 | -79.61985 | 569 ft | 14 kts | 31° |
| 2026-05-08 01:59 | 43.66777 | -79.61873 | 571 ft | 22 kts | 44° |
| 2026-05-08 02:00 | 43.66890 | -79.61729 | 572 ft | 23 kts | 42° |
| 2026-05-08 02:00 | 43.67013 | -79.61576 | 571 ft | 24 kts | 42° |
| 2026-05-08 02:00 | 43.67141 | -79.61417 | 573 ft | 24 kts | 42° |
| 2026-05-08 02:00 | 43.67250 | -79.61238 | 573 ft | 25 kts | 53° |
| 2026-05-08 02:01 | 43.67285 | -79.61172 | 570 ft | 8 kts | 54° |
| 2026-05-08 02:01 | 43.67336 | -79.61103 | 571 ft | 11 kts | 21° |
| 2026-05-08 02:01 | 43.67424 | -79.61102 | 570 ft | 15 kts | 352° |
| 2026-05-08 02:01 | 43.67509 | -79.61105 | 571 ft | 1 kts | 15° |
| 2026-05-08 02:02 | 43.67543 | -79.61086 | 571 ft | 8 kts | 8° |
| 2026-05-08 02:02 | 43.67569 | -79.61088 | 571 ft | 0 kts | 344° |
| 2026-05-08 02:02 | 43.67573 | -79.61090 | 572 ft | 3 kts | 344° |
| 2026-05-08 02:02 | 43.67578 | -79.61092 | 572 ft | 0 kts | 346° |